Archival Weather

Václav Havel Intl Apt

Prague, Czechia (LKPR)

Report from: Friday, May 26, 2023 9:00 AM CEST
Current time: Sunday, July 14, 2024 12:39 PM CEST

Current weather – Weather history – Daily summaries
Weather forecast

Temperature14.0°C (57.2°F)
Dew point9.0°C (48.2°F)
Winds 8 kts (4.1 m/s, 9.2 mph) Vrb
Winds variableWinds variable from North-Northwest (330°) to North-Northeast (30°)
Clouds Sky clear
Altimeter30.27 in.Hg (1025 mB)
Relative humidity72 %
Density altitude-351 ft. (-107 m)
Remarks Ceiling and visibility OK
No significant changes expected in the next two hours
Flight conditions Visual Meteorological Conditions
Raw dataLKPR 260700Z 36008KT 330V030 CAVOK 14/09 Q1025 NOSIG
An error has occurred. This application may no longer respond until reloaded. Reload 🗙